KMKG/MKG METAR and TAF weather

Enter ICAO airport designator
Station Type Date Time Source
KMKG METAR 2020/01/28 11:23 UTC NOAA

KMKG 281123Z 31007KT 7SM -SN BKN015 OVC021 00/M03 A3003 RMK AO2 P0001 T00001028 $


Station Type Date Time Source
KMKG Decoded METAR 2020/01/28 11:23 UTC NOAA

MUSKEGON COUNTY AIRPORT, MI, United States (KMKG) 43-10N 086-14W 191M
Jan 28, 2020 - 06:23 AM EST / 2020.01.28 1123 UTC
Wind: from the NW (310 degrees) at 8 MPH (7 KT):0
Visibility: 7 mile(s):0
Sky conditions: overcast
Weather: light snow
Precipitation last hour: 0.01 inches
Temperature: 32.0 F (0.0 C)
Windchill: 24 F (-4 C):1
Dew Point: 27.0 F (-2.8 C)
Relative Humidity: 81%
Pressure (altimeter): 30.03 in. Hg (1016 hPa)
ob: KMKG 281123Z 31007KT 7SM -SN BKN015 OVC021 00/M03 A3003 RMK AO2 P0001 T00001028
cycle: 11

Station Type Date Time Source
KMKG TAF 2020/01/28 12:42 UTC NOAA

TAF KMKG 281140Z 2812/2912 30005KT P6SM -SHSN OVC015
FM282200 32005KT P6SM OVC020

Example: see airport list